Latest Weather Observations for Yarrawonga

IDN60801

Issued at 2:33 pm EST Thursday 29 September 2016 (issued every 30 minutes, with the page automatically refreshed every 10 minutes)

About weather observations | Map of weather stations | Latest weather observations for NSW | Other Formats
Station Details ID: 081124 Name: YARRAWONGA Lat: -36.03 Lon: 146.03 Height: 128.9 m
Data from the previous 72 hours. | See also: Recent months at Yarrawonga
Date/Time
EST
Temp
°C
App
Temp
°C
Dew
Point
°C
Rel
Hum
%
Delta-T
°C
Wind Press
QNH
hPa
Press
MSL
hPa
Rain since
9am
mm
Dir  Spd
km/h
Gust
km/h
Spd
kts
Gust
kts
29/02:30pm 14.3 8.3 7.1 62 3.6 N 28 35 15 19 991.7 991.6 1.2
29/02:00pm 13.4 7.4 7.0 65 3.2 NNW 28 41 15 22 992.1 992.1 1.2
29/01:30pm 14.4 8.6 8.1 66 3.2 N 28 37 15 20 992.2 992.2 1.2
29/01:00pm 14.1 8.3 7.9 66 3.1 NNW 28 39 15 21 992.7 992.7 1.2
29/12:30pm 14.7 9.8 8.4 66 3.2 N 24 32 13 17 993.0 993.0 1.2
29/12:00pm 13.8 9.2 8.2 69 2.8 NNW 22 32 12 17 993.5 993.5 1.2
29/11:30am 12.8 8.9 8.7 76 2.1 NNW 19 30 10 16 993.7 993.7 1.2
29/11:00am 12.9 9.3 9.7 81 1.7 NNW 19 33 10 18 993.9 993.9 1.2
29/10:30am 11.3 8.2 8.9 85 1.2 NNW 15 19 8 10 993.9 993.9 1.2
29/10:00am 9.9 7.5 8.7 92 0.6 NW 11 19 6 10 993.7 993.7 1.2
29/09:30am 9.7 5.8 8.5 92 0.6 WNW 19 35 10 19 993.7 993.7 0.8
29/09:00am 11.2 7.3 9.3 88 1.0 NW 20 28 11 15 993.4 993.4 19.8
29/08:30am 11.4 5.6 9.5 88 1.0 NNW 30 41 16 22 993.0 993.0 19.8
29/08:00am 11.9 9.1 11.3 96 0.3 N 17 24 9 13 992.9 992.9 19.6
29/07:30am 11.8 9.8 11.5 98 0.2 N 13 19 7 10 992.7 992.7 19.6
29/07:00am 11.6 9.5 11.3 98 0.2 N 13 19 7 10 992.3 992.3 19.6
29/06:30am 11.5 10.3 11.5 100 0.0 NNE 9 11 5 6 991.8 991.7 19.6
29/06:00am 11.9 10.0 11.9 100 0.0 NNW 13 20 7 11 992.3 992.3 19.4
29/05:30am 11.9 7.6 11.9 100 0.0 N 26 39 14 21 992.5 992.5 18.8
29/05:00am 11.7 7.2 11.5 99 0.1 NE 26 39 14 21 991.6 991.5 17.4
29/04:30am 11.6 7.9 11.4 99 0.1 NE 22 35 12 19 992.2 992.2 14.6
29/04:00am 11.6 7.5 11.3 98 0.2 NE 24 37 13 20 992.9 992.9 12.0
29/03:30am 11.6 6.7 11.3 98 0.2 NE 28 39 15 21 993.3 993.3 11.8
29/03:00am 11.6 6.7 11.3 98 0.2 NE 28 43 15 23 993.8 993.8 11.4
29/02:30am 11.8 6.5 11.2 96 0.3 NE 30 46 16 25 994.7 994.7 9.4
29/02:00am 11.7 7.1 11.2 97 0.3 NE 26 39 14 21 995.7 995.7 8.8
29/01:30am 12.2 7.9 10.9 92 0.7 NNE 24 39 13 21 997.0 997.0 5.4
29/01:00am 12.6 8.6 10.5 87 1.1 NE 22 35 12 19 997.0 997.0 1.8
29/12:30am 12.5 8.5 10.6 88 1.0 ENE 22 35 12 19 996.6 996.6 1.0
29/12:00am 12.9 7.0 10.4 85 1.3 ENE 32 50 17 27 997.7 997.7 0.6
 
Date/Time
EST
Temp
°C
App
Temp
°C
Dew
Point
°C
Rel
Hum
%
Delta-T
°C
Wind Press
QNH
hPa
Press
MSL
hPa
Rain since
9am
mm
Dir  Spd
km/h
Gust
km/h
Spd
kts
Gust
kts
28/11:52pm 13.0 7.8 10.4 84 1.4 NE 28 50 15 27 997.3 997.3 0.4
28/11:30pm 13.9 9.0 9.9 77 2.1 NE 26 39 14 21 998.1 998.1 0.2
28/11:00pm 13.9 8.2 9.7 76 2.2 ENE 30 41 16 22 998.8 998.8 0.0
28/10:30pm 13.3 9.5 9.9 80 1.8 ENE 20 32 11 17 999.9 999.9 0.0
28/10:00pm 13.4 9.7 10.0 80 1.8 ENE 20 28 11 15 1001.2 1001.2 0.0
28/09:30pm 13.2 10.0 10.0 81 1.7 ENE 17 24 9 13 1002.1 1002.1 0.0
28/09:00pm 13.2 10.3 9.8 80 1.8 NE 15 20 8 11 1002.3 1002.3 0.0
28/08:30pm 13.7 10.9 9.9 78 2.0 NE 15 22 8 12 1002.8 1002.8 0.0
28/08:00pm 14.2 11.0 10.0 76 2.2 NE 17 24 9 13 1002.9 1002.9 0.0
28/07:30pm 13.9 10.2 10.1 78 2.0 ENE 20 30 11 16 1002.5 1002.5 0.0
28/07:00pm 13.2 10.5 10.4 83 1.5 ENE 15 24 8 13 1002.7 1002.7 0.0
28/06:30pm 13.8 11.1 10.2 79 1.9 NE 15 19 8 10 1003.6 1003.6 0.0
28/06:00pm 14.3 11.6 10.3 77 2.1 NE 15 22 8 12 1003.8 1003.8 0.0
28/05:30pm 15.5 12.3 10.1 70 2.8 NE 17 24 9 13 1004.4 1004.4 0.0
28/05:00pm 16.2 13.1 10.3 68 3.1 NNE 17 26 9 14 1005.1 1005.2 0.0
28/04:30pm 16.1 12.9 10.0 67 3.2 NE 17 26 9 14 1005.3 1005.4 0.0
28/04:00pm 16.4 12.7 10.0 66 3.4 NE 20 35 11 19 1005.5 1005.6 0.0
28/03:30pm 16.7 13.5 10.1 65 3.5 NE 17 26 9 14 1005.8 1005.9 0.0
28/03:00pm 17.1 13.7 10.7 66 3.5 NE 19 30 10 16 1006.7 1006.8 0.0
28/02:30pm 16.4 13.1 9.6 64 3.6 NE 17 26 9 14 1007.3 1007.3 0.0
28/02:00pm 16.9 13.7 9.8 63 3.8 ENE 17 26 9 14 1008.2 1008.2 0.0
28/01:30pm 17.1 14.6 9.8 62 3.9 ENE 13 22 7 12 1009.2 1009.2 0.0
28/01:00pm 16.7 14.5 9.4 62 3.8 NE 11 20 6 11 1010.1 1010.1 0.0
28/12:30pm 16.5 14.1 8.7 60 4.0 NNE 11 20 6 11 1011.2 1011.2 0.0
28/12:00pm 16.2 13.7 8.4 60 4.0 NE 11 19 6 10 1011.9 1012.0 0.0
28/11:30am 15.4 13.2 7.9 61 3.8 NNE 9 19 5 10 1012.4 1012.5 0.0
28/11:00am 15.9 14.1 9.6 66 3.3 NNE 9 15 5 8 1013.0 1013.1 0.0
28/10:30am 14.9 12.9 8.8 67 3.1 NE 9 17 5 9 1013.4 1013.5 0.0
28/10:00am 14.5 12.8 9.7 73 2.5 ENE 9 15 5 8 1013.8 1013.9 0.0
28/09:30am 13.1 11.6 9.2 77 2.0 NE 7 13 4 7 1014.1 1014.2 0.0
28/09:00am 12.4 10.9 9.2 81 1.6 NE 7 9 4 5 1014.4 1014.5 0.0
28/08:30am 11.4 10.0 9.0 85 1.2 ENE 6 7 3 4 1014.4 1014.5 0.0
28/08:00am 10.4 9.1 9.3 93 0.6 NNE 6 7 3 4 1014.6 1014.7 0.0
28/07:30am 9.2 8.7 9.2 100 0.0 E 2 4 1 2 1014.6 1014.7 0.0
28/07:00am 6.9 5.4 6.8 99 0.0 NE 4 4 2 2 1014.6 1014.7 0.0
28/06:30am 4.7 2.4 4.6 99 0.0 NE 6 6 3 3 1014.6 1014.7 0.0
28/06:00am 4.0 1.9 3.9 99 0.0 E 4 4 2 2 1014.4 1014.5 0.0
28/05:30am 4.0 1.5 3.9 99 0.0 E 6 6 3 3 1013.9 1014.0 0.0
28/05:00am 4.3 1.9 4.2 99 0.0 E 6 6 3 3 1013.8 1013.9 0.0
28/04:30am 4.2 2.1 4.1 99 0.0 ESE 4 4 2 2 1013.6 1013.7 0.0
28/04:00am 4.1 2.0 4.0 99 0.0 SE 4 6 2 3 1013.7 1013.8 0.0
28/03:30am 4.9 2.6 4.8 99 0.0 SE 6 6 3 3 1013.6 1013.7 0.0
28/03:00am 4.6 3.3 4.3 98 0.1 CALM 0 0 0 0 1013.7 1013.8 0.0
28/02:30am 6.1 4.8 6.0 99 0.0 NNW 2 4 1 2 1013.7 1013.8 0.0
28/02:00am 6.8 5.3 6.7 99 0.0 NNW 4 6 2 3 1013.8 1013.9 0.0
28/01:30am 7.0 5.0 6.9 99 0.0 N 7 9 4 5 1013.9 1014.0 0.0
28/01:00am 7.6 5.7 7.5 99 0.0 N 7 7 4 4 1014.0 1014.1 0.0
28/12:30am 8.0 6.1 7.7 98 0.1 N 7 7 4 4 1014.3 1014.4 0.0
28/12:00am 8.2 6.6 7.9 98 0.1 N 6 7 3 4 1014.3 1014.4 0.0
 
Date/Time
EST
Temp
°C
App
Temp
°C
Dew
Point
°C
Rel
Hum
%
Delta-T
°C
Wind Press
QNH
hPa
Press
MSL
hPa
Rain since
9am
mm
Dir  Spd
km/h
Gust
km/h
Spd
kts
Gust
kts
27/11:30pm 8.3 6.6 7.7 96 0.3 NNW 6 6 3 3 1014.5 1014.6 0.0
27/11:00pm 8.4 6.8 8.0 97 0.2 NW 6 6 3 3 1014.2 1014.3 0.0
27/10:30pm 8.3 7.1 8.0 98 0.1 NW 4 6 2 3 1014.2 1014.3 0.0
27/10:00pm 8.8 7.6 8.2 96 0.3 NW 4 4 2 2 1014.3 1014.4 0.0
27/09:30pm 9.0 8.3 8.4 96 0.3 WNW 2 4 1 2 1014.3 1014.4 0.0
27/09:00pm 9.8 9.1 8.6 92 0.6 S 2 4 1 2 1014.5 1014.6 0.0
27/08:30pm 11.7 10.2 9.1 84 1.3 NW 7 11 4 6 1014.5 1014.6 0.0
27/08:00pm 11.7 10.1 8.7 82 1.5 NW 7 11 4 6 1014.3 1014.4 0.0
27/07:30pm 11.8 10.2 8.8 82 1.5 NW 7 9 4 5 1014.1 1014.2 0.0
27/07:00pm 12.3 10.8 9.1 81 1.6 NW 7 9 4 5 1014.0 1014.1 0.0
27/06:30pm 12.7 11.3 9.5 81 1.6 NW 7 11 4 6 1013.7 1013.8 0.0
27/06:00pm 12.9 11.5 9.4 79 1.8 NW 7 9 4 5 1013.4 1013.5 0.0
27/05:30pm 13.0 10.7 9.1 77 2.0 WNW 11 15 6 8 1013.2 1013.3 0.0
27/05:00pm 14.7 12.7 8.6 67 3.1 W 9 13 5 7 1013.0 1013.1 0.0
27/04:30pm 14.6 11.7 8.1 65 3.3 W 13 20 7 11 1012.7 1012.8 0.0
27/04:00pm 15.4 12.6 8.4 63 3.6 WSW 13 22 7 12 1012.5 1012.6 0.0
27/03:30pm 15.1 11.8 8.1 63 3.5 WSW 15 22 8 12 1012.5 1012.6 0.0
27/03:00pm 14.9 12.1 8.6 66 3.2 WSW 13 19 7 10 1012.5 1012.6 0.0
27/02:30pm 13.8 9.7 8.6 71 2.6 WSW 20 30 11 16 1012.8 1012.9 0.0
27/02:00pm 14.8 11.7 8.7 67 3.1 WSW 15 20 8 11 1012.8 1012.9 0.0
27/01:30pm 14.7 11.0 8.0 64 3.4 WSW 17 24 9 13 1012.9 1013.0 0.0
27/01:00pm 14.0 11.2 8.6 70 2.7 W 13 20 7 11 1013.0 1013.1 0.0
27/12:30pm 13.9 10.6 8.1 68 2.9 W 15 20 8 11 1013.1 1013.2 0.0
27/12:00pm 14.1 11.3 8.5 69 2.8 SW 13 20 7 11 1013.2 1013.3 0.0
27/11:30am 12.9 8.9 6.5 65 3.1 WSW 17 24 9 13 1013.3 1013.4 0.0
27/11:00am 12.9 8.5 6.7 66 3.0 W 19 28 10 15 1013.4 1013.5 0.0
27/10:30am 11.9 8.0 7.0 72 2.4 WSW 17 26 9 14 1013.5 1013.6 0.0
27/10:00am 11.0 6.7 7.1 77 1.9 WSW 19 26 10 14 1013.5 1013.6 0.0
27/09:30am 11.0 7.3 7.9 81 1.5 WSW 17 24 9 13 1013.3 1013.4 0.0
27/09:00am 9.8 6.4 7.6 86 1.1 WSW 15 22 8 12 1013.0 1013.1 2.4
27/08:30am 9.1 5.7 7.5 90 0.8 W 15 19 8 10 1012.9 1013.0 2.4
27/08:00am 8.2 4.7 7.0 92 0.6 SW 15 22 8 12 1012.7 1012.8 2.4
27/07:30am 7.4 4.2 6.8 96 0.3 WSW 13 17 7 9 1012.4 1012.5 2.4
27/07:00am 6.5 3.2 6.2 98 0.1 W 13 17 7 9 1012.3 1012.4 2.4
27/06:30am 6.1 2.3 5.8 98 0.1 W 15 20 8 11 1011.6 1011.7 2.4
27/06:00am 6.1 2.3 5.7 97 0.2 W 15 19 8 10 1011.1 1011.1 2.4
27/05:30am 6.3 2.5 5.9 97 0.2 W 15 20 8 11 1010.8 1010.8 2.4
27/05:00am 6.3 2.9 6.0 98 0.1 W 13 19 7 10 1010.6 1010.6 2.4
27/04:30am 6.5 3.1 6.1 97 0.2 W 13 17 7 9 1010.4 1010.4 2.2
27/04:00am 7.2 3.5 6.5 95 0.3 W 15 20 8 11 1010.1 1010.1 2.2
27/03:30am 7.6 4.5 7.2 97 0.2 W 13 19 7 10 1010.0 1010.0 2.2
27/03:00am 7.8 5.9 7.5 98 0.1 W 7 11 4 6 1010.1 1010.1 2.2
27/02:30am 8.1 5.9 8.0 99 0.0 W 9 13 5 7 1010.2 1010.2 2.2
27/02:00am 8.6 6.1 8.2 97 0.2 W 11 13 6 7 1010.3 1010.3 2.2
27/01:30am 9.3 6.9 8.7 96 0.3 WSW 11 13 6 7 1010.4 1010.4 2.2
27/01:00am 10.1 7.1 9.3 95 0.4 WNW 15 22 8 12 1011.0 1011.0 1.6
27/12:30am 10.2 8.9 9.1 93 0.5 NW 6 9 3 5 1010.6 1010.6 1.2
27/12:00am 10.0 8.6 8.9 93 0.5 NNW 6 7 3 4 1010.5 1010.5 0.4
 
Date/Time
EST
Temp
°C
App
Temp
°C
Dew
Point
°C
Rel
Hum
%
Delta-T
°C
Wind Press
QNH
hPa
Press
MSL
hPa
Rain since
9am
mm
Dir  Spd
km/h
Gust
km/h
Spd
kts
Gust
kts
26/11:30pm 10.8 9.3 9.2 90 0.8 NNW 7 11 4 6 1010.8 1010.8 0.4
26/11:00pm 11.0 8.7 8.9 87 1.0 N 11 15 6 8 1010.8 1010.8 0.2
26/10:30pm 11.4 8.8 9.3 87 1.1 N 13 17 7 9 1011.5 1011.5 0.2
26/10:00pm 10.9 9.4 9.3 90 0.8 NNE 7 11 4 6 1011.5 1011.5 0.2
26/09:30pm 11.2 10.0 9.5 89 0.9 N 6 13 3 7 1012.0 1012.1 0.2
26/09:00pm 11.2 9.3 9.1 87 1.1 NE 9 11 5 6 1011.3 1011.3 0.0
26/08:30pm 10.4 8.1 9.0 91 0.7 NE 11 13 6 7 1010.9 1010.9 0.0
26/08:00pm 9.4 7.3 8.2 92 0.6 NE 9 11 5 6 1011.0 1011.0 0.0
26/07:30pm 9.7 7.6 8.1 90 0.8 NE 9 9 5 5 1011.1 1011.1 0.0
26/07:00pm 10.8 9.2 8.9 88 0.9 NE 7 9 4 5 1011.1 1011.1 0.0
26/06:30pm 12.0 10.5 9.2 83 1.4 NNE 7 9 4 5 1010.9 1010.9 0.0
26/06:00pm 13.4 11.9 9.1 75 2.2 NNE 7 9 4 5 1011.0 1011.0 0.0
26/05:30pm 14.8 12.8 8.7 67 3.1 NNW 9 15 5 8 1011.1 1011.1 0.0
26/05:00pm 15.4 12.4 7.9 61 3.8 N 13 19 7 10 1010.9 1010.9 0.0
26/04:30pm 15.5 13.2 7.5 59 4.0 NNW 9 15 5 8 1011.1 1011.1 0.0
26/04:00pm 15.7 12.3 7.5 58 4.1 NW 15 24 8 13 1011.3 1011.3 0.0
26/03:30pm 16.6 13.7 8.1 57 4.3 NW 13 19 7 10 1011.3 1011.3 0.0
26/03:00pm 15.5 13.6 7.5 59 4.0 NW 7 20 4 11 1011.4 1011.4 0.0

Other Formats:

Comma delimited format used in spreadsheet applications
http://www.bom.gov.au/fwo/IDN60801/IDN60801.94862.axf

JavaScript Object Notation format (JSON) in row-major order
http://www.bom.gov.au/fwo/IDN60801/IDN60801.94862.json